NDF4036 EDDH-EKCH
Flight info
| Callsign | NDF4036 |
|---|---|
| Flight time | 0h 39m |
| Altitude | 23000 |
| Route | LUGEG3G LUGEG P605 GESKA/N0393F220 Z711 MONAK MONAK5C |
| Aircraft | A320/M-SDE3FGHIRWY/LB1 |
Departure
| Time | 2026-04-24 21:50 |
|---|---|
| Airport | Hamburg Helmut Schmidt Airport (EDDH) |
Arrival
| Time | 2026-04-24 22:29 |
|---|---|
| Airport | Copenhagen Kastrup Airport (EKCH) |
| Time | Latitude | Longitude | Altitude | Speed | Heading |
|---|---|---|---|---|---|
| 2026-04-24 21:19 | 53.63112 | 10.00376 | 49 ft | 0 kts | 87° |
| 2026-04-24 21:38 | 53.63112 | 10.00349 | 45 ft | 4 kts | 93° |
| 2026-04-24 21:39 | 53.63115 | 10.00305 | 46 ft | 4 kts | 108° |
| 2026-04-24 21:39 | 53.63127 | 10.00264 | 45 ft | 4 kts | 134° |
| 2026-04-24 21:39 | 53.63144 | 10.00245 | 47 ft | 1 kts | 177° |
| 2026-04-24 21:44 | 53.63142 | 10.00245 | 47 ft | 3 kts | 177° |
| 2026-04-24 21:45 | 53.63113 | 10.00225 | 48 ft | 7 kts | 212° |
| 2026-04-24 21:45 | 53.63082 | 10.00194 | 48 ft | 6 kts | 210° |
| 2026-04-24 21:45 | 53.63024 | 10.00135 | 48 ft | 10 kts | 212° |
| 2026-04-24 21:45 | 53.62967 | 10.00076 | 46 ft | 9 kts | 212° |
| 2026-04-24 21:46 | 53.62926 | 10.00010 | 48 ft | 8 kts | 242° |
| 2026-04-24 21:46 | 53.62898 | 9.99918 | 48 ft | 4 kts | 244° |
| 2026-04-24 21:46 | 53.62898 | 9.99917 | 48 ft | 0 kts | 244° |
| 2026-04-24 21:47 | 53.62897 | 9.99913 | 48 ft | 2 kts | 244° |
| 2026-04-24 21:47 | 53.62862 | 9.99777 | 44 ft | 14 kts | 267° |
| 2026-04-24 21:47 | 53.62912 | 9.99705 | 45 ft | 0 kts | 333° |
| 2026-04-24 21:49 | 53.62951 | 9.99672 | 45 ft | 15 kts | 333° |
| 2026-04-24 21:49 | 53.63244 | 9.99418 | 47 ft | 81 kts | 332° |
| 2026-04-24 21:49 | 53.63922 | 9.98829 | 50 ft | 136 kts | 332° |
| 2026-04-24 21:50 | 53.64838 | 9.97994 | 392 ft | 154 kts | 329° |
| 2026-04-24 21:50 | 53.65803 | 9.97171 | 1159 ft | 155 kts | 330° |
| 2026-04-24 21:50 | 53.66764 | 9.96351 | 1936 ft | 157 kts | 330° |
| 2026-04-24 21:50 | 53.67795 | 9.95468 | 2332 ft | 177 kts | 331° |
| 2026-04-24 21:51 | 53.68997 | 9.94683 | 2798 ft | 194 kts | 350° |
| 2026-04-24 21:51 | 53.70354 | 9.94651 | 3492 ft | 199 kts | 357° |
| 2026-04-24 21:51 | 53.71745 | 9.94668 | 4277 ft | 201 kts | 356° |
| 2026-04-24 21:51 | 53.73139 | 9.95135 | 5010 ft | 214 kts | 24° |
| 2026-04-24 21:52 | 53.73565 | 9.95611 | 5241 ft | 221 kts | 35° |
| 2026-04-24 21:52 | 53.74444 | 9.98216 | 5667 ft | 259 kts | 69° |
| 2026-04-24 21:52 | 53.75056 | 10.01200 | 6153 ft | 275 kts | 62° |
| 2026-04-24 21:52 | 53.75906 | 10.04131 | 6930 ft | 280 kts | 57° |
| 2026-04-24 21:53 | 53.76841 | 10.07052 | 7759 ft | 284 kts | 56° |
| 2026-04-24 21:53 | 53.77792 | 10.10006 | 8597 ft | 288 kts | 56° |
| 2026-04-24 21:53 | 53.78736 | 10.13033 | 9445 ft | 293 kts | 57° |
| 2026-04-24 21:53 | 53.79667 | 10.16123 | 10261 ft | 297 kts | 57° |
| 2026-04-24 21:54 | 53.80627 | 10.19366 | 10604 ft | 320 kts | 58° |
| 2026-04-24 21:54 | 53.81650 | 10.22852 | 10844 ft | 342 kts | 59° |
| 2026-04-24 21:54 | 53.82712 | 10.26537 | 11398 ft | 352 kts | 59° |
| 2026-04-24 21:54 | 53.83782 | 10.30299 | 12083 ft | 357 kts | 59° |
| 2026-04-24 21:55 | 53.84862 | 10.34122 | 12803 ft | 362 kts | 59° |
| 2026-04-24 21:55 | 53.85600 | 10.36735 | 13302 ft | 365 kts | 59° |
| 2026-04-24 21:55 | 53.86702 | 10.40646 | 14001 ft | 369 kts | 60° |
| 2026-04-24 21:55 | 53.87813 | 10.44590 | 14623 ft | 373 kts | 60° |
| 2026-04-24 21:56 | 53.88943 | 10.48586 | 15241 ft | 377 kts | 60° |
| 2026-04-24 21:56 | 53.90072 | 10.52570 | 15849 ft | 381 kts | 60° |
| 2026-04-24 21:56 | 53.91241 | 10.56700 | 16464 ft | 386 kts | 60° |
| 2026-04-24 21:56 | 53.92408 | 10.60829 | 17070 ft | 390 kts | 60° |
| 2026-04-24 21:57 | 53.93610 | 10.64910 | 17664 ft | 392 kts | 56° |
| 2026-04-24 21:57 | 53.95167 | 10.68691 | 18253 ft | 391 kts | 45° |
| 2026-04-24 21:57 | 53.97013 | 10.72097 | 18801 ft | 393 kts | 42° |
| 2026-04-24 21:57 | 53.98892 | 10.75501 | 19331 ft | 397 kts | 43° |
| 2026-04-24 21:58 | 54.00790 | 10.78948 | 19855 ft | 401 kts | 43° |
| 2026-04-24 21:58 | 54.02702 | 10.82427 | 20381 ft | 405 kts | 43° |
| 2026-04-24 21:58 | 54.04631 | 10.85944 | 20901 ft | 408 kts | 43° |
| 2026-04-24 21:58 | 54.06573 | 10.89501 | 21421 ft | 412 kts | 43° |
| 2026-04-24 21:59 | 54.08532 | 10.93100 | 21925 ft | 416 kts | 43° |
| 2026-04-24 21:59 | 54.10504 | 10.96731 | 22411 ft | 419 kts | 43° |
| 2026-04-24 21:59 | 54.12496 | 11.00396 | 22918 ft | 423 kts | 43° |
| 2026-04-24 21:59 | 54.14496 | 11.04085 | 23053 ft | 424 kts | 44° |
| 2026-04-24 22:00 | 54.15849 | 11.06591 | 23075 ft | 424 kts | 44° |
| 2026-04-24 22:00 | 54.17843 | 11.10298 | 23072 ft | 424 kts | 44° |
| 2026-04-24 22:00 | 54.19835 | 11.14009 | 23071 ft | 423 kts | 44° |
| 2026-04-24 22:00 | 54.21826 | 11.17719 | 23064 ft | 423 kts | 44° |
| 2026-04-24 22:01 | 54.23782 | 11.21372 | 23066 ft | 422 kts | 44° |
| 2026-04-24 22:01 | 54.25790 | 11.25128 | 23063 ft | 422 kts | 44° |
| 2026-04-24 22:01 | 54.27741 | 11.28786 | 23060 ft | 422 kts | 44° |
| 2026-04-24 22:01 | 54.29742 | 11.32545 | 23061 ft | 421 kts | 44° |
| 2026-04-24 22:02 | 54.31688 | 11.36205 | 23058 ft | 421 kts | 44° |
| 2026-04-24 22:02 | 54.33684 | 11.39966 | 23057 ft | 420 kts | 44° |
| 2026-04-24 22:02 | 54.35650 | 11.43672 | 23055 ft | 420 kts | 44° |
| 2026-04-24 22:02 | 54.37612 | 11.47384 | 23056 ft | 420 kts | 44° |
| 2026-04-24 22:03 | 54.39575 | 11.51094 | 23059 ft | 420 kts | 44° |
| 2026-04-24 22:03 | 54.41539 | 11.54803 | 23052 ft | 419 kts | 44° |
| 2026-04-24 22:03 | 54.43501 | 11.58512 | 23044 ft | 419 kts | 44° |
| 2026-04-24 22:03 | 54.45460 | 11.62214 | 23048 ft | 419 kts | 44° |
| 2026-04-24 22:04 | 54.47416 | 11.65917 | 23041 ft | 418 kts | 44° |
| 2026-04-24 22:04 | 54.49349 | 11.69582 | 23038 ft | 418 kts | 44° |
| 2026-04-24 22:04 | 54.51300 | 11.73290 | 23035 ft | 418 kts | 44° |
| 2026-04-24 22:04 | 54.53249 | 11.76998 | 23031 ft | 418 kts | 44° |
| 2026-04-24 22:05 | 54.55222 | 11.80762 | 23027 ft | 417 kts | 44° |
| 2026-04-24 22:05 | 54.57145 | 11.84428 | 23023 ft | 417 kts | 44° |
| 2026-04-24 22:05 | 54.59116 | 11.88189 | 23022 ft | 417 kts | 44° |
| 2026-04-24 22:05 | 54.61055 | 11.91811 | 23002 ft | 414 kts | 40° |
| 2026-04-24 22:06 | 54.63212 | 11.94960 | 22738 ft | 399 kts | 30° |
| 2026-04-24 22:06 | 54.65496 | 11.97601 | 22475 ft | 393 kts | 29° |
| 2026-04-24 22:06 | 54.67770 | 12.00207 | 22199 ft | 391 kts | 28° |
| 2026-04-24 22:06 | 54.70026 | 12.02797 | 21937 ft | 388 kts | 28° |
| 2026-04-24 22:07 | 54.72269 | 12.05383 | 21678 ft | 387 kts | 28° |
| 2026-04-24 22:07 | 54.74497 | 12.07961 | 21422 ft | 383 kts | 28° |
| 2026-04-24 22:07 | 54.76689 | 12.10508 | 21030 ft | 377 kts | 28° |
| 2026-04-24 22:07 | 54.78860 | 12.13034 | 20585 ft | 374 kts | 28° |
| 2026-04-24 22:08 | 54.81009 | 12.15534 | 20142 ft | 370 kts | 28° |
| 2026-04-24 22:08 | 54.83141 | 12.18012 | 19681 ft | 368 kts | 28° |
| 2026-04-24 22:08 | 54.85268 | 12.20491 | 19217 ft | 366 kts | 28° |
| 2026-04-24 22:08 | 54.87371 | 12.22943 | 18766 ft | 364 kts | 28° |
| 2026-04-24 22:09 | 54.89467 | 12.25390 | 18303 ft | 362 kts | 28° |
| 2026-04-24 22:09 | 54.91553 | 12.27830 | 17796 ft | 360 kts | 28° |
| 2026-04-24 22:09 | 54.93623 | 12.30260 | 17329 ft | 357 kts | 28° |
| 2026-04-24 22:09 | 54.95676 | 12.32678 | 16874 ft | 355 kts | 28° |
| 2026-04-24 22:10 | 54.97456 | 12.34774 | 16462 ft | 353 kts | 28° |
| 2026-04-24 22:10 | 54.99492 | 12.37162 | 15998 ft | 351 kts | 28° |
| 2026-04-24 22:10 | 55.01512 | 12.39527 | 15536 ft | 349 kts | 28° |
| 2026-04-24 22:10 | 55.03528 | 12.41876 | 15082 ft | 347 kts | 28° |
| 2026-04-24 22:11 | 55.05530 | 12.44204 | 14628 ft | 346 kts | 28° |
| 2026-04-24 22:11 | 55.07523 | 12.46531 | 14178 ft | 344 kts | 28° |
| 2026-04-24 22:11 | 55.09053 | 12.48319 | 13819 ft | 343 kts | 28° |
| 2026-04-24 22:11 | 55.11032 | 12.50635 | 13326 ft | 341 kts | 28° |
| 2026-04-24 22:12 | 55.12994 | 12.52934 | 12857 ft | 338 kts | 28° |
| 2026-04-24 22:12 | 55.14944 | 12.55224 | 12396 ft | 336 kts | 28° |
| 2026-04-24 22:12 | 55.16867 | 12.57486 | 12042 ft | 329 kts | 28° |
| 2026-04-24 22:12 | 55.18730 | 12.59686 | 11914 ft | 317 kts | 28° |
| 2026-04-24 22:13 | 55.20521 | 12.61806 | 11789 ft | 305 kts | 28° |
| 2026-04-24 22:13 | 55.22250 | 12.63848 | 11632 ft | 295 kts | 27° |
| 2026-04-24 22:13 | 55.24039 | 12.65428 | 11424 ft | 284 kts | 14° |
| 2026-04-24 22:13 | 55.25905 | 12.66488 | 11083 ft | 281 kts | 12° |
| 2026-04-24 22:14 | 55.27763 | 12.67537 | 10715 ft | 280 kts | 13° |
| 2026-04-24 22:14 | 55.29614 | 12.68592 | 10345 ft | 279 kts | 13° |
| 2026-04-24 22:14 | 55.31458 | 12.69644 | 9977 ft | 278 kts | 13° |
| 2026-04-24 22:14 | 55.33294 | 12.70692 | 9587 ft | 277 kts | 13° |
| 2026-04-24 22:15 | 55.35126 | 12.71740 | 9203 ft | 275 kts | 13° |
| 2026-04-24 22:15 | 55.36787 | 12.72693 | 8975 ft | 272 kts | 13° |
| 2026-04-24 22:15 | 55.38587 | 12.73724 | 8962 ft | 272 kts | 13° |
| 2026-04-24 22:15 | 55.40385 | 12.74754 | 8954 ft | 272 kts | 13° |
| 2026-04-24 22:16 | 55.42186 | 12.75787 | 8540 ft | 273 kts | 13° |
| 2026-04-24 22:16 | 55.43132 | 12.76330 | 8299 ft | 273 kts | 14° |
| 2026-04-24 22:16 | 55.43415 | 12.76493 | 8239 ft | 273 kts | 14° |
| 2026-04-24 22:16 | 55.44972 | 12.77451 | 7874 ft | 272 kts | 14° |
| 2026-04-24 22:17 | 55.46786 | 12.78509 | 7473 ft | 270 kts | 14° |
| 2026-04-24 22:17 | 55.48561 | 12.79516 | 7143 ft | 267 kts | 14° |
| 2026-04-24 22:17 | 55.50323 | 12.80509 | 6869 ft | 264 kts | 14° |
| 2026-04-24 22:17 | 55.52069 | 12.81496 | 6592 ft | 263 kts | 14° |
| 2026-04-24 22:18 | 55.53586 | 12.82355 | 6384 ft | 262 kts | 14° |
| 2026-04-24 22:18 | 55.55323 | 12.83342 | 6109 ft | 261 kts | 14° |
| 2026-04-24 22:18 | 55.57039 | 12.84416 | 5843 ft | 261 kts | 17° |
| 2026-04-24 22:18 | 55.58727 | 12.85606 | 5585 ft | 261 kts | 19° |
| 2026-04-24 22:19 | 55.60037 | 12.86566 | 5387 ft | 261 kts | 19° |
| 2026-04-24 22:19 | 55.61710 | 12.87805 | 5123 ft | 260 kts | 20° |
| 2026-04-24 22:19 | 55.63273 | 12.89440 | 4892 ft | 263 kts | 35° |
| 2026-04-24 22:19 | 55.64648 | 12.91598 | 4740 ft | 264 kts | 38° |
| 2026-04-24 22:20 | 55.66022 | 12.93759 | 4573 ft | 264 kts | 38° |
| 2026-04-24 22:20 | 55.67374 | 12.95850 | 4422 ft | 252 kts | 38° |
| 2026-04-24 22:20 | 55.68659 | 12.97837 | 4269 ft | 240 kts | 38° |
| 2026-04-24 22:20 | 55.69895 | 12.99775 | 3995 ft | 235 kts | 38° |
| 2026-04-24 22:21 | 55.71092 | 13.01681 | 3868 ft | 229 kts | 39° |
| 2026-04-24 22:21 | 55.72280 | 13.03585 | 3798 ft | 231 kts | 39° |
| 2026-04-24 22:21 | 55.73564 | 13.05218 | 3653 ft | 226 kts | 20° |
| 2026-04-24 22:21 | 55.75079 | 13.05712 | 3539 ft | 221 kts | 354° |
| 2026-04-24 22:22 | 55.76531 | 13.04939 | 3415 ft | 219 kts | 328° |
| 2026-04-24 22:22 | 55.77622 | 13.03102 | 3283 ft | 218 kts | 302° |
| 2026-04-24 22:22 | 55.78130 | 13.00566 | 3158 ft | 221 kts | 277° |
| 2026-04-24 22:22 | 55.78231 | 12.97840 | 3055 ft | 221 kts | 275° |
| 2026-04-24 22:23 | 55.78329 | 12.95114 | 2985 ft | 221 kts | 275° |
| 2026-04-24 22:23 | 55.78344 | 12.92462 | 2988 ft | 209 kts | 263° |
| 2026-04-24 22:23 | 55.77912 | 12.90080 | 2987 ft | 201 kts | 244° |
| 2026-04-24 22:23 | 55.77065 | 12.88134 | 2994 ft | 200 kts | 224° |
| 2026-04-24 22:24 | 55.76476 | 12.87215 | 2998 ft | 200 kts | 224° |
| 2026-04-24 22:24 | 55.75425 | 12.85565 | 3003 ft | 199 kts | 224° |
| 2026-04-24 22:24 | 55.74384 | 12.83938 | 3003 ft | 199 kts | 224° |
| 2026-04-24 22:24 | 55.73342 | 12.82311 | 2999 ft | 199 kts | 224° |
| 2026-04-24 22:25 | 55.72333 | 12.80738 | 2929 ft | 188 kts | 224° |
| 2026-04-24 22:25 | 55.71363 | 12.79223 | 2679 ft | 184 kts | 224° |
| 2026-04-24 22:25 | 55.70412 | 12.77739 | 2437 ft | 180 kts | 224° |
| 2026-04-24 22:25 | 55.69481 | 12.76287 | 2198 ft | 176 kts | 224° |
| 2026-04-24 22:26 | 55.68571 | 12.74871 | 1959 ft | 172 kts | 225° |
| 2026-04-24 22:26 | 55.67708 | 12.73530 | 1748 ft | 156 kts | 225° |
| 2026-04-24 22:26 | 55.66921 | 12.72306 | 1527 ft | 147 kts | 225° |
| 2026-04-24 22:26 | 55.66165 | 12.71130 | 1327 ft | 143 kts | 225° |
| 2026-04-24 22:27 | 55.65479 | 12.70062 | 1147 ft | 140 kts | 225° |
| 2026-04-24 22:27 | 55.64750 | 12.68929 | 957 ft | 139 kts | 225° |
| 2026-04-24 22:27 | 55.64039 | 12.67817 | 783 ft | 137 kts | 225° |
| 2026-04-24 22:27 | 55.63322 | 12.66689 | 614 ft | 136 kts | 225° |
| 2026-04-24 22:28 | 55.62624 | 12.65611 | 429 ft | 134 kts | 225° |
| 2026-04-24 22:28 | 55.61920 | 12.64536 | 210 ft | 133 kts | 223° |
| 2026-04-24 22:28 | 55.61232 | 12.63460 | 36 ft | 131 kts | 225° |
| 2026-04-24 22:28 | 55.60653 | 12.62561 | 29 ft | 87 kts | 220° |
| 2026-04-24 22:29 | 55.60091 | 12.61693 | 28 ft | 41 kts | 221° |
| 2026-04-24 22:29 | 55.60038 | 12.61497 | 26 ft | 17 kts | 297° |
| 2026-04-24 22:29 | 55.60142 | 12.61511 | 24 ft | 23 kts | 44° |
| 2026-04-24 22:30 | 55.60298 | 12.61757 | 24 ft | 34 kts | 36° |
| 2026-04-24 22:30 | 55.60471 | 12.62041 | 24 ft | 34 kts | 44° |
| 2026-04-24 22:30 | 55.60641 | 12.62300 | 25 ft | 23 kts | 38° |
| 2026-04-24 22:30 | 55.60795 | 12.62416 | 24 ft | 25 kts | 25° |
| 2026-04-24 22:31 | 55.60935 | 12.62621 | 24 ft | 27 kts | 42° |
| 2026-04-24 22:31 | 55.61081 | 12.62847 | 24 ft | 29 kts | 40° |
| 2026-04-24 22:31 | 55.61236 | 12.63084 | 26 ft | 30 kts | 41° |
| 2026-04-24 22:31 | 55.61397 | 12.63336 | 24 ft | 32 kts | 41° |
| 2026-04-24 22:32 | 55.61567 | 12.63595 | 24 ft | 33 kts | 41° |
| 2026-04-24 22:32 | 55.61741 | 12.63867 | 26 ft | 34 kts | 40° |
| 2026-04-24 22:32 | 55.61872 | 12.64055 | 24 ft | 23 kts | 30° |
| 2026-04-24 22:32 | 55.61947 | 12.64290 | 24 ft | 23 kts | 80° |
| 2026-04-24 22:33 | 55.62016 | 12.64541 | 25 ft | 24 kts | 39° |
| 2026-04-24 22:33 | 55.62155 | 12.64707 | 25 ft | 24 kts | 33° |
| 2026-04-24 22:33 | 55.62252 | 12.64829 | 24 ft | 12 kts | 56° |
| 2026-04-24 22:33 | 55.62235 | 12.64952 | 24 ft | 10 kts | 120° |
| 2026-04-24 22:34 | 55.62197 | 12.65057 | 24 ft | 10 kts | 123° |
| 2026-04-24 22:34 | 55.62188 | 12.65157 | 24 ft | 8 kts | 53° |
| 2026-04-24 22:34 | 55.62235 | 12.65198 | 24 ft | 6 kts | 3° |
| 2026-04-24 22:34 | 55.62289 | 12.65196 | 24 ft | 11 kts | 7° |
| 2026-04-24 22:35 | 55.62400 | 12.65197 | 24 ft | 19 kts | 358° |
| 2026-04-24 22:35 | 55.62535 | 12.65183 | 24 ft | 20 kts | 356° |
| 2026-04-24 22:35 | 55.62642 | 12.65216 | 25 ft | 12 kts | 45° |
| 2026-04-24 22:35 | 55.62673 | 12.65297 | 25 ft | 7 kts | 39° |
| 2026-04-24 22:36 | 55.62708 | 12.65316 | 24 ft | 3 kts | 14° |
| 2026-04-24 22:36 | 55.62722 | 12.65325 | 24 ft | 0 kts | 19° |